createdAt,value
2022-11-23T00:04:26.565Z,18.90
2022-11-23T00:09:28.603Z,18.38
2022-11-23T00:14:30.578Z,18.13
2022-11-23T00:19:32.660Z,22.50
2022-11-23T00:24:34.781Z,17.25
2022-11-23T00:29:36.592Z,20.30
2022-11-23T00:34:38.395Z,13.80
2022-11-23T00:39:40.282Z,18.08
2022-11-23T00:44:42.081Z,17.70
2022-11-23T00:49:44.241Z,17.95
2022-11-23T00:54:46.020Z,17.75
2022-11-23T00:59:47.866Z,17.20
2022-11-23T01:04:49.771Z,20.23
2022-11-23T01:09:51.518Z,17.42
2022-11-23T01:14:54.316Z,18.40
2022-11-23T01:19:56.094Z,22.45
2022-11-23T01:24:57.855Z,22.08
2022-11-23T01:29:59.799Z,22.48
2022-11-23T01:35:01.827Z,19.25
2022-11-23T01:40:04.083Z,23.33
2022-11-23T01:45:36.618Z,19.17
2022-11-23T01:50:39.197Z,22.50
2022-11-23T01:55:42.657Z,21.40
2022-11-23T02:00:45.878Z,23.67
2022-11-23T02:05:50.902Z,22.10
2022-11-23T02:10:53.648Z,24.08
2022-11-23T02:15:57.347Z,24.17
2022-11-23T02:21:01.067Z,24.48
2022-11-23T02:26:05.219Z,19.95
2022-11-23T02:31:07.304Z,24.27
2022-11-23T02:36:49.711Z,21.30
2022-11-23T02:41:53.063Z,23.63
2022-11-23T02:46:55.331Z,23.90
2022-11-23T02:51:57.127Z,24.02
2022-11-23T02:56:58.917Z,21.08
2022-11-23T03:02:01.825Z,25.52
2022-11-23T03:07:03.821Z,21.75
2022-11-23T03:12:05.991Z,24.73
2022-11-23T03:17:07.910Z,28.45
2022-11-23T03:22:09.894Z,24.63
2022-11-23T03:27:11.945Z,24.55
2022-11-23T03:32:13.649Z,24.98
2022-11-23T03:37:15.453Z,22.58
2022-11-23T03:42:17.459Z,26.80
2022-11-23T03:47:19.352Z,25.55
2022-11-23T03:52:21.091Z,29.27
2022-11-23T03:57:22.869Z,26.50
2022-11-23T04:02:24.686Z,27.60
2022-11-23T04:07:26.465Z,24.45
2022-11-23T04:12:28.306Z,24.85
2022-11-23T04:17:30.042Z,31.83
2022-11-23T04:22:31.842Z,24.00
2022-11-23T04:27:33.622Z,22.10
2022-11-23T04:32:35.577Z,23.73
2022-11-23T04:37:37.618Z,22.30
2022-11-23T04:42:39.582Z,23.35
2022-11-23T04:47:41.511Z,26.08
2022-11-23T04:52:43.232Z,22.00
2022-11-23T04:57:44.973Z,24.38
2022-11-23T05:02:46.748Z,25.58
2022-11-23T05:07:48.578Z,22.52
2022-11-23T05:12:50.429Z,21.92
2022-11-23T05:17:57.714Z,28.92
2022-11-23T05:23:00.849Z,19.40
2022-11-23T05:28:11.381Z,27.77
2022-11-23T05:33:24.516Z,29.27
2022-11-23T05:38:26.293Z,33.75
2022-11-23T05:43:28.252Z,29.02
2022-11-23T05:48:30.272Z,29.20
2022-11-23T05:53:32.235Z,28.13
2022-11-23T05:58:34.322Z,30.55
2022-11-23T06:03:36.334Z,51.00
2022-11-23T06:08:38.133Z,39.58
2022-11-23T06:13:39.874Z,42.80
2022-11-23T06:18:41.653Z,34.85
2022-11-23T06:23:43.581Z,33.08
2022-11-23T06:28:45.745Z,34.85
2022-11-23T06:33:47.492Z,27.80
2022-11-23T06:38:49.447Z,27.67
2022-11-23T06:43:51.418Z,28.38
2022-11-23T06:48:53.281Z,36.70
2022-11-23T06:53:55.090Z,33.10
2022-11-23T06:58:56.808Z,36.33
2022-11-23T07:03:58.576Z,37.35
2022-11-23T07:09:00.354Z,36.13
2022-11-23T07:14:02.155Z,30.40
2022-11-23T07:19:04.024Z,32.75
2022-11-23T07:24:06.078Z,37.80
2022-11-23T07:29:08.001Z,46.88
2022-11-23T07:34:11.193Z,47.50
2022-11-23T07:39:14.116Z,38.80
2022-11-23T07:44:15.843Z,25.70
2022-11-23T07:49:17.763Z,38.58
2022-11-23T07:54:23.660Z,47.90
2022-11-23T07:59:25.673Z,33.83
2022-11-23T08:04:27.375Z,33.50
2022-11-23T08:09:29.200Z,38.70
2022-11-23T08:14:31.412Z,34.55
2022-11-23T08:19:33.382Z,34.30
2022-11-23T08:24:35.425Z,32.17
2022-11-23T08:29:37.356Z,35.67
2022-11-23T08:34:39.151Z,29.85
2022-11-23T08:39:40.934Z,35.83
2022-11-23T08:44:42.651Z,34.83
2022-11-23T08:49:44.391Z,24.05
2022-11-23T08:54:46.123Z,22.10
2022-11-23T08:59:47.880Z,24.75
2022-11-23T09:04:49.632Z,31.90
2022-11-23T09:09:51.492Z,38.08
2022-11-23T09:14:53.595Z,30.42
2022-11-23T09:19:55.484Z,25.45
2022-11-23T09:24:57.399Z,28.90
2022-11-23T09:29:59.334Z,22.70
2022-11-23T09:35:01.275Z,23.38
2022-11-23T09:40:03.904Z,28.73
2022-11-23T09:45:23.201Z,22.90
2022-11-23T09:50:29.943Z,28.55
2022-11-23T09:55:38.485Z,32.03
2022-11-23T10:01:04.210Z,25.30
2022-11-23T10:06:25.681Z,30.88
2022-11-23T10:11:46.234Z,31.70
2022-11-23T10:17:00.977Z,21.23
2022-11-23T10:22:34.579Z,20.67
2022-11-23T10:27:36.328Z,19.88
2022-11-23T10:32:46.042Z,26.05
2022-11-23T10:37:47.941Z,29.98
2022-11-23T10:43:01.190Z,26.73
2022-11-23T10:48:03.519Z,29.15
2022-11-23T10:53:08.666Z,26.33
2022-11-23T10:58:31.807Z,26.63
2022-11-23T11:03:35.274Z,23.70
2022-11-23T11:08:55.186Z,25.30
2022-11-23T11:14:25.058Z,24.10
2022-11-23T11:19:26.973Z,26.00
2022-11-23T11:24:43.283Z,28.88
2022-11-23T11:29:44.976Z,27.77
2022-11-23T11:34:49.402Z,29.38
2022-11-23T11:40:12.623Z,31.85
2022-11-23T11:45:24.177Z,26.92
2022-11-23T11:50:34.333Z,25.75
2022-11-23T11:56:13.962Z,25.45
2022-11-23T12:01:18.763Z,27.63
2022-11-23T12:06:37.938Z,27.25
2022-11-23T12:11:39.826Z,27.15
2022-11-23T12:17:33.119Z,24.40
2022-11-23T12:22:59.483Z,29.05
2022-11-23T12:28:10.139Z,20.73
2022-11-23T12:33:26.915Z,24.70
2022-11-23T12:38:48.077Z,31.77
2022-11-23T12:44:01.794Z,29.90
2022-11-23T12:49:09.491Z,33.85
2022-11-23T12:54:20.142Z,35.85
2022-11-23T12:59:25.263Z,28.08
2022-11-23T13:04:32.331Z,29.80
2022-11-23T13:09:59.204Z,30.88
2022-11-23T13:15:50.779Z,32.22
2022-11-23T13:21:23.364Z,26.88
2022-11-23T13:26:28.520Z,26.05
2022-11-23T13:31:36.166Z,25.95
2022-11-23T13:37:10.996Z,29.23
2022-11-23T13:42:10.862Z,32.78
2022-11-23T13:47:16.251Z,36.50
2022-11-23T13:52:21.049Z,32.20
2022-11-23T13:57:23.474Z,32.22
2022-11-23T14:02:28.298Z,27.98
2022-11-23T14:07:43.393Z,31.27
2022-11-23T14:12:55.347Z,26.85
2022-11-23T14:17:57.199Z,29.08
2022-11-23T14:23:02.171Z,23.48
2022-11-23T14:28:22.309Z,24.50
2022-11-23T14:33:29.782Z,37.47
2022-11-23T14:39:09.140Z,47.80
2022-11-23T14:44:14.688Z,62.50
2022-11-23T14:49:16.572Z,51.03
2022-11-23T14:54:19.994Z,28.85
2022-11-23T14:59:47.150Z,30.02
2022-11-23T15:05:07.553Z,36.53
2022-11-23T15:10:27.905Z,37.47
2022-11-23T15:15:31.141Z,29.05
2022-11-23T15:20:40.554Z,29.95
2022-11-23T15:25:54.599Z,26.85
2022-11-23T15:30:58.669Z,23.85
2022-11-23T15:36:00.758Z,27.63
2022-11-23T15:41:05.293Z,29.33
2022-11-23T15:46:14.864Z,22.80
2022-11-23T15:51:44.891Z,22.67
2022-11-23T15:56:49.117Z,24.85
2022-11-23T16:01:50.953Z,29.20
2022-11-23T16:06:54.047Z,29.77
2022-11-23T16:11:55.825Z,28.80
2022-11-23T16:17:24.403Z,27.35
2022-11-23T16:22:35.871Z,20.85
2022-11-23T16:27:38.304Z,20.48
2022-11-23T16:32:40.098Z,23.17
2022-11-23T16:37:41.894Z,25.05
2022-11-23T16:42:44.408Z,24.63
2022-11-23T16:48:00.610Z,26.15
2022-11-23T16:53:13.015Z,21.42
2022-11-23T16:58:16.854Z,25.50
2022-11-23T17:03:20.269Z,30.60
2022-11-23T17:08:23.982Z,30.95
2022-11-23T17:13:29.051Z,26.70
2022-11-23T17:18:30.836Z,31.15
2022-11-23T17:23:32.631Z,33.75
2022-11-23T17:28:35.323Z,30.00
2022-11-23T17:33:38.865Z,27.23
2022-11-23T17:38:44.475Z,32.60
2022-11-23T17:43:46.390Z,29.35
2022-11-23T17:48:54.959Z,25.33
2022-11-23T17:53:56.926Z,31.83
2022-11-23T17:58:58.769Z,27.20
2022-11-23T18:04:05.048Z,25.92
2022-11-23T18:09:06.894Z,56.65
2022-11-23T18:14:08.883Z,28.42
2022-11-23T18:19:10.823Z,30.73
2022-11-23T18:24:12.613Z,34.78
2022-11-23T18:29:17.335Z,33.15
2022-11-23T18:34:19.378Z,30.33
2022-11-23T18:39:21.214Z,40.03
2022-11-23T18:44:23.069Z,36.88
2022-11-23T18:49:25.104Z,32.97
2022-11-23T18:54:26.884Z,36.40
2022-11-23T18:59:56.956Z,34.53
2022-11-23T19:04:50.710Z,34.90
2022-11-23T19:09:52.458Z,33.60
2022-11-23T19:14:54.373Z,30.02
2022-11-23T19:19:56.141Z,35.15
2022-11-23T19:24:57.950Z,33.10
2022-11-23T19:29:59.746Z,28.45
2022-11-23T19:35:01.721Z,31.55
2022-11-23T19:40:04.310Z,28.20
2022-11-23T19:45:06.514Z,27.23
2022-11-23T19:50:08.994Z,34.78
2022-11-23T19:55:10.778Z,22.95
2022-11-23T20:00:13.278Z,24.98
2022-11-23T20:05:15.464Z,19.45
2022-11-23T20:10:18.344Z,20.35
2022-11-23T20:15:20.045Z,24.10
2022-11-23T20:20:21.947Z,19.40
2022-11-23T20:25:23.703Z,22.52
2022-11-23T20:30:25.616Z,22.25
2022-11-23T20:35:27.535Z,24.75
2022-11-23T20:40:29.438Z,22.33
2022-11-23T20:45:31.192Z,18.83
2022-11-23T20:50:33.691Z,19.25
2022-11-23T20:55:36.710Z,19.80
2022-11-23T21:00:38.708Z,21.73
2022-11-23T21:05:40.899Z,21.10
2022-11-23T21:11:01.633Z,22.52
2022-11-23T21:16:05.214Z,25.65
2022-11-23T21:21:07.310Z,20.52
2022-11-23T21:26:09.423Z,24.77
2022-11-23T21:31:15.134Z,22.98
2022-11-23T21:36:17.042Z,27.98
2022-11-23T21:41:18.854Z,24.10
2022-11-23T21:46:21.728Z,26.40
2022-11-23T21:51:29.872Z,23.63
2022-11-23T21:56:32.117Z,24.02
2022-11-23T22:01:36.422Z,21.20
2022-11-23T22:06:39.905Z,23.85
2022-11-23T22:11:43.664Z,22.58
2022-11-23T22:16:47.625Z,20.55
2022-11-23T22:21:49.644Z,23.02
2022-11-23T22:26:51.613Z,21.70
2022-11-23T22:31:53.917Z,27.55
2022-11-23T22:36:55.808Z,28.70
2022-11-23T22:41:58.054Z,27.73
2022-11-23T22:47:00.133Z,26.50
2022-11-23T22:52:02.185Z,29.65
2022-11-23T22:57:04.328Z,22.73
2022-11-23T23:02:06.337Z,24.63
2022-11-23T23:07:08.313Z,23.95
2022-11-23T23:12:10.384Z,24.27
2022-11-23T23:17:12.313Z,25.20
2022-11-23T23:22:14.317Z,28.83
2022-11-23T23:27:17.356Z,30.20
2022-11-23T23:32:19.713Z,26.10
2022-11-23T23:37:21.772Z,24.63
2022-11-23T23:42:23.600Z,27.63
2022-11-23T23:47:26.388Z,23.50
2022-11-23T23:52:28.248Z,25.33
2022-11-23T23:57:30.240Z,24.58
